Terminal Aerodrome Forecast
Issued by NWS Charleston, WV

Current Version | Previous Version | Text Only | Print | Product List | Glossary Off
Versions: 1 2 3 4 5 6 7 8 9 10 11 12 13 14 15 16 17 18 19 20 21 22 23 24 25 26 27 28 29 30

000
FTUS41 KRLX 220200 AAA
TAFHTS
TAF AMD
KHTS 220222Z 2202/2224 33005KT P6SM SCT015 BKN025 OVC035
      TEMPO 2202/2206 BKN035
     FM220900 32005KT P6SM BKN015
     FM221600 33007KT P6SM BKN025
     FM221900 33006KT P6SM BKN035=

USA.gov is the U.S. government's official web portal to all federal, state and local government web resources and services.